createdAt,value
2022-09-21T00:01:21.592Z,10.50
2022-09-21T00:03:52.317Z,10.40
2022-09-21T00:06:21.260Z,10.40
2022-09-21T00:08:49.280Z,10.40
2022-09-21T00:11:19.402Z,10.40
2022-09-21T00:13:47.794Z,10.30
2022-09-21T00:16:17.096Z,10.30
2022-09-21T00:18:44.032Z,10.30
2022-09-21T00:21:14.249Z,10.30
2022-09-21T00:23:42.105Z,10.20
2022-09-21T00:26:12.455Z,10.30
2022-09-21T00:28:40.681Z,10.20
2022-09-21T00:31:13.339Z,10.20
2022-09-21T00:33:41.415Z,10.20
2022-09-21T00:36:10.988Z,10.20
2022-09-21T00:38:38.347Z,10.20
2022-09-21T00:41:07.575Z,10.10
2022-09-21T00:43:36.328Z,10.20
2022-09-21T00:46:18.843Z,10.10
2022-09-21T00:48:47.051Z,10.10
2022-09-21T00:51:14.802Z,10.10
2022-09-21T00:53:41.978Z,10.10
2022-09-21T00:56:11.280Z,10.20
2022-09-21T00:58:44.954Z,10.10
2022-09-21T01:01:15.487Z,10.10
2022-09-21T01:03:45.851Z,10.00
2022-09-21T01:06:14.815Z,10.00
2022-09-21T01:08:42.930Z,9.90
2022-09-21T01:11:44.307Z,9.90
2022-09-21T01:14:34.957Z,9.90
2022-09-21T01:17:25.535Z,9.80
2022-09-21T01:20:13.187Z,9.70
2022-09-21T01:23:13.905Z,9.80
2022-09-21T01:26:04.250Z,9.60
2022-09-21T01:28:55.980Z,9.60
2022-09-21T01:31:28.660Z,9.40
2022-09-21T01:34:01.743Z,9.40
2022-09-21T01:36:34.254Z,9.30
2022-09-21T01:39:13.015Z,9.30
2022-09-21T01:41:42.820Z,9.30
2022-09-21T01:44:15.459Z,9.20
2022-09-21T01:46:42.618Z,9.20
2022-09-21T01:49:21.683Z,9.10
2022-09-21T01:52:00.732Z,9.10
2022-09-21T01:54:52.918Z,9.10
2022-09-21T01:57:37.356Z,9.10
2022-09-21T02:00:07.274Z,9.00
2022-09-21T02:02:53.039Z,8.90
2022-09-21T02:05:23.647Z,8.90
2022-09-21T02:07:52.505Z,8.80
2022-09-21T02:10:35.030Z,8.80
2022-09-21T02:13:05.807Z,8.80
2022-09-21T02:15:59.190Z,8.80
2022-09-21T02:18:44.123Z,8.70
2022-09-21T02:21:25.629Z,8.70
2022-09-21T02:24:13.702Z,8.70
2022-09-21T02:26:50.615Z,8.70
2022-09-21T02:29:25.191Z,8.60
2022-09-21T02:31:55.537Z,8.60
2022-09-21T02:34:33.479Z,8.70
2022-09-21T02:37:11.045Z,8.50
2022-09-21T02:39:58.404Z,8.60
2022-09-21T02:42:31.006Z,8.40
2022-09-21T02:45:11.099Z,8.40
2022-09-21T02:47:59.355Z,8.30
2022-09-21T02:50:50.306Z,8.40
2022-09-21T02:53:23.956Z,8.70
2022-09-21T02:55:56.186Z,8.20
2022-09-21T02:58:26.718Z,8.20
2022-09-21T03:00:56.622Z,8.20
2022-09-21T03:03:24.940Z,8.00
2022-09-21T03:05:54.333Z,7.90
2022-09-21T03:08:21.498Z,8.00
2022-09-21T03:10:50.882Z,7.90
2022-09-21T03:15:47.300Z,7.80
2022-09-21T03:18:14.256Z,7.90
2022-09-21T03:20:47.900Z,7.80
2022-09-21T03:23:14.985Z,7.80
2022-09-21T03:25:46.114Z,7.70
2022-09-21T03:28:14.915Z,7.70
2022-09-21T03:30:42.087Z,7.70
2022-09-21T03:33:09.719Z,7.70
2022-09-21T03:35:36.500Z,7.70
2022-09-21T03:38:03.405Z,7.70
2022-09-21T03:40:30.351Z,7.60
2022-09-21T03:42:57.269Z,7.60
2022-09-21T03:45:27.259Z,7.60
2022-09-21T03:47:58.431Z,7.60
2022-09-21T03:50:28.458Z,7.60
2022-09-21T03:52:59.470Z,7.60
2022-09-21T03:55:27.523Z,7.50
2022-09-21T03:57:54.507Z,7.50
2022-09-21T04:00:22.120Z,7.50
2022-09-21T04:02:49.175Z,7.50
2022-09-21T04:05:17.681Z,7.50
2022-09-21T04:07:48.171Z,7.50
2022-09-21T04:10:18.537Z,7.50
2022-09-21T04:12:46.846Z,7.40
2022-09-21T04:15:20.008Z,7.40
2022-09-21T04:17:51.116Z,7.40
2022-09-21T04:20:19.356Z,7.50
2022-09-21T04:22:47.707Z,7.40
2022-09-21T04:25:15.866Z,7.30
2022-09-21T04:27:43.252Z,7.30
2022-09-21T04:30:15.784Z,7.40
2022-09-21T04:32:42.934Z,7.30
2022-09-21T04:35:10.534Z,7.30
2022-09-21T04:37:37.404Z,7.30
2022-09-21T04:40:05.691Z,7.30
2022-09-21T04:42:32.861Z,7.20
2022-09-21T04:45:00.179Z,7.20
2022-09-21T04:47:29.139Z,7.20
2022-09-21T04:49:55.901Z,7.20
2022-09-21T04:52:22.790Z,7.20
2022-09-21T04:54:50.105Z,7.50
2022-09-21T04:57:16.949Z,7.10
2022-09-21T04:59:43.751Z,7.10
2022-09-21T05:02:10.526Z,7.10
2022-09-21T05:04:37.591Z,7.10
2022-09-21T05:07:04.509Z,7.00
2022-09-21T05:09:49.743Z,7.10
2022-09-21T05:12:16.548Z,7.00
2022-09-21T05:14:44.981Z,7.00
2022-09-21T05:17:12.829Z,7.00
2022-09-21T05:19:40.198Z,7.10
2022-09-21T05:22:07.190Z,6.90
2022-09-21T05:24:35.263Z,7.00
2022-09-21T05:27:02.337Z,7.60
2022-09-21T05:29:29.391Z,6.90
2022-09-21T05:32:20.680Z,7.70
2022-09-21T05:34:55.918Z,7.10
2022-09-21T05:37:37.669Z,8.00
2022-09-21T05:40:05.827Z,7.10
2022-09-21T05:42:33.455Z,6.40
2022-09-21T05:45:00.857Z,7.10
2022-09-21T05:47:46.070Z,7.00
2022-09-21T05:50:31.358Z,6.90
2022-09-21T05:53:18.027Z,7.00
2022-09-21T05:55:54.405Z,6.90
2022-09-21T05:58:39.084Z,6.90
2022-09-21T06:01:21.422Z,6.90
2022-09-21T06:03:50.165Z,6.90
2022-09-21T06:06:30.213Z,6.90
2022-09-21T06:08:57.076Z,6.90
2022-09-21T06:11:24.002Z,7.00
2022-09-21T06:13:50.742Z,7.20
2022-09-21T06:16:17.503Z,7.80
2022-09-21T06:18:44.679Z,7.10
2022-09-21T06:21:11.870Z,7.10
2022-09-21T06:23:40.291Z,7.90
2022-09-21T06:26:07.167Z,7.30
2022-09-21T06:28:35.503Z,7.30
2022-09-21T06:31:02.496Z,7.90
2022-09-21T06:33:29.573Z,7.50
2022-09-21T06:36:00.938Z,7.10
2022-09-21T06:38:29.326Z,7.80
2022-09-21T06:41:00.902Z,7.80
2022-09-21T06:43:27.928Z,7.80
2022-09-21T06:45:57.809Z,7.90
2022-09-21T06:48:25.549Z,8.40
2022-09-21T06:50:56.870Z,9.20
2022-09-21T06:53:23.609Z,10.00
2022-09-21T06:55:50.345Z,10.90
2022-09-21T06:58:17.219Z,11.70
2022-09-21T07:00:44.105Z,12.50
2022-09-21T07:03:14.331Z,13.40
2022-09-21T07:05:44.343Z,14.30
2022-09-21T07:10:05.133Z,14.90
2022-09-21T07:10:59.329Z,15.40
2022-09-21T07:13:27.199Z,15.80
2022-09-21T07:15:53.913Z,15.90
2022-09-21T07:18:21.734Z,15.90
2022-09-21T07:20:51.885Z,15.90
2022-09-21T07:23:20.903Z,16.10
2022-09-21T07:25:50.112Z,16.40
2022-09-21T07:28:17.321Z,16.60
2022-09-21T07:30:44.216Z,17.00
2022-09-21T07:33:13.295Z,17.30
2022-09-21T07:35:40.010Z,17.40
2022-09-21T07:38:07.851Z,17.40
2022-09-21T07:40:35.984Z,17.40
2022-09-21T07:43:03.700Z,17.50
2022-09-21T07:45:31.304Z,17.70
2022-09-21T07:48:13.418Z,18.10
2022-09-21T07:50:40.756Z,18.60
2022-09-21T07:53:07.732Z,18.80
2022-09-21T07:55:35.659Z,19.10
2022-09-21T07:58:20.999Z,19.20
2022-09-21T08:00:48.018Z,19.20
2022-09-21T08:03:15.026Z,19.20
2022-09-21T08:05:41.851Z,19.10
2022-09-21T08:08:09.111Z,18.90
2022-09-21T08:10:36.405Z,18.90
2022-09-21T08:13:07.982Z,19.00
2022-09-21T08:15:49.345Z,19.30
2022-09-21T08:18:17.081Z,19.60
2022-09-21T08:20:44.341Z,20.00
2022-09-21T08:23:11.915Z,20.30
2022-09-21T08:25:38.764Z,20.50
2022-09-21T08:28:09.627Z,20.50
2022-09-21T08:30:47.462Z,20.70
2022-09-21T08:33:14.691Z,20.80
2022-09-21T08:35:41.398Z,20.90
2022-09-21T08:38:08.434Z,21.10
2022-09-21T08:40:35.969Z,21.30
2022-09-21T08:43:09.514Z,21.40
2022-09-21T08:45:42.247Z,21.60
2022-09-21T08:48:28.288Z,21.60
2022-09-21T08:51:00.792Z,21.50
2022-09-21T08:53:36.509Z,21.50
2022-09-21T08:56:03.514Z,21.50
2022-09-21T08:58:32.482Z,21.50
2022-09-21T09:01:20.527Z,21.60
2022-09-21T09:04:17.061Z,21.60
2022-09-21T09:06:49.431Z,21.50
2022-09-21T09:09:31.281Z,21.40
2022-09-21T09:12:11.657Z,21.40
2022-09-21T09:15:08.085Z,21.30
2022-09-21T09:18:03.242Z,21.30
2022-09-21T09:20:41.834Z,21.30
2022-09-21T09:23:35.098Z,21.30
2022-09-21T09:26:18.338Z,21.30
2022-09-21T09:28:55.634Z,21.30
2022-09-21T09:31:27.779Z,21.30
2022-09-21T09:34:28.829Z,21.40
2022-09-21T09:37:00.376Z,21.40
2022-09-21T09:39:30.877Z,21.30
2022-09-21T09:42:09.486Z,21.20
2022-09-21T09:45:13.996Z,21.10
2022-09-21T09:48:08.471Z,21.10
2022-09-21T09:50:41.844Z,21.10
2022-09-21T09:53:19.077Z,20.90
2022-09-21T09:55:50.490Z,20.80
2022-09-21T09:58:19.279Z,20.60
2022-09-21T10:00:50.818Z,20.40
2022-09-21T10:03:28.490Z,20.20
2022-09-21T10:05:58.146Z,20.10
2022-09-21T10:08:37.311Z,20.00
2022-09-21T10:11:15.057Z,19.90
2022-09-21T10:13:45.439Z,19.80
2022-09-21T10:16:22.285Z,19.70
2022-09-21T10:18:51.317Z,19.60
2022-09-21T10:21:27.090Z,19.50
2022-09-21T10:24:05.677Z,19.20
2022-09-21T10:26:37.409Z,19.10
2022-09-21T10:29:22.727Z,18.90
2022-09-21T10:32:00.600Z,18.80
2022-09-21T10:34:30.789Z,18.70
2022-09-21T10:37:02.872Z,18.70
2022-09-21T10:39:31.675Z,18.70
2022-09-21T10:42:19.765Z,18.80
2022-09-21T10:44:50.916Z,18.80
2022-09-21T10:47:30.085Z,18.80
2022-09-21T10:50:00.695Z,18.90
2022-09-21T10:52:46.019Z,18.90
2022-09-21T10:55:20.797Z,18.90
2022-09-21T10:57:49.230Z,18.90
2022-09-21T11:00:25.883Z,18.80
2022-09-21T11:02:55.086Z,18.90
2022-09-21T11:05:29.584Z,19.00
2022-09-21T11:08:08.525Z,19.20
2022-09-21T11:11:02.743Z,19.30
2022-09-21T11:13:46.184Z,19.40
2022-09-21T11:16:42.734Z,19.60
2022-09-21T11:19:37.612Z,19.70
2022-09-21T11:22:12.483Z,19.80
2022-09-21T11:24:54.820Z,19.80
2022-09-21T11:27:36.088Z,19.90
2022-09-21T11:30:11.510Z,19.80
2022-09-21T11:32:57.100Z,19.80
2022-09-21T11:35:36.156Z,19.80
2022-09-21T11:38:09.149Z,19.90
2022-09-21T11:40:47.601Z,19.90
2022-09-21T11:43:44.630Z,19.80
2022-09-21T11:46:23.791Z,19.80
2022-09-21T11:48:59.985Z,19.70
2022-09-21T11:52:01.064Z,19.50
2022-09-21T11:54:36.981Z,19.40
2022-09-21T11:57:18.957Z,19.10
2022-09-21T12:00:00.394Z,19.10
2022-09-21T12:02:52.383Z,19.30
2022-09-21T12:05:29.363Z,19.40
2022-09-21T12:08:23.841Z,19.60
2022-09-21T12:10:53.881Z,19.80
2022-09-21T12:13:33.546Z,20.00
2022-09-21T12:16:20.451Z,20.10
2022-09-21T12:18:56.470Z,20.20
2022-09-21T12:21:30.359Z,20.40
2022-09-21T12:24:04.100Z,20.40
2022-09-21T12:26:39.085Z,20.60
2022-09-21T12:29:17.496Z,20.70
2022-09-21T12:31:48.443Z,20.80
2022-09-21T12:34:22.828Z,20.80
2022-09-21T12:37:21.079Z,20.90
2022-09-21T12:39:54.512Z,21.00
2022-09-21T12:42:54.181Z,20.90
2022-09-21T12:45:32.400Z,20.90
2022-09-21T12:48:14.352Z,20.90
2022-09-21T12:50:48.595Z,20.90
2022-09-21T12:53:22.992Z,21.00
2022-09-21T12:56:09.993Z,21.10
2022-09-21T12:58:44.079Z,21.10
2022-09-21T13:01:23.201Z,21.20
2022-09-21T13:04:15.609Z,21.30
2022-09-21T13:07:08.784Z,21.40
2022-09-21T13:09:42.337Z,21.40
2022-09-21T13:12:24.962Z,21.40
2022-09-21T13:14:58.009Z,21.40
2022-09-21T13:17:34.322Z,21.30
2022-09-21T13:20:17.571Z,21.30
2022-09-21T13:22:48.138Z,21.30
2022-09-21T13:25:24.866Z,21.20
2022-09-21T13:28:21.672Z,21.30
2022-09-21T13:31:18.514Z,21.40
2022-09-21T13:34:19.412Z,21.40
2022-09-21T13:37:06.221Z,21.50
2022-09-21T13:39:33.218Z,21.50
2022-09-21T13:42:30.012Z,21.50
2022-09-21T13:44:58.384Z,21.50
2022-09-21T13:47:40.122Z,21.40
2022-09-21T13:50:24.911Z,21.40
2022-09-21T13:52:58.786Z,21.40
2022-09-21T13:55:34.943Z,21.50
2022-09-21T13:58:29.247Z,21.40
2022-09-21T14:01:03.287Z,21.40
2022-09-21T14:03:43.085Z,21.50
2022-09-21T14:06:17.352Z,21.60
2022-09-21T14:09:01.455Z,21.60
2022-09-21T14:11:35.740Z,21.70
2022-09-21T14:14:20.406Z,21.70
2022-09-21T14:16:57.814Z,21.80
2022-09-21T14:19:27.342Z,21.70
2022-09-21T14:22:09.655Z,21.60
2022-09-21T14:25:28.884Z,21.60
2022-09-21T14:28:01.036Z,21.50
2022-09-21T14:30:32.207Z,21.30
2022-09-21T14:33:20.502Z,21.00
2022-09-21T14:35:48.926Z,21.10
2022-09-21T14:38:54.984Z,20.90
2022-09-21T14:41:24.379Z,20.50
2022-09-21T14:43:56.584Z,20.30
2022-09-21T14:46:59.913Z,20.20
2022-09-21T14:50:07.038Z,20.20
2022-09-21T14:52:57.265Z,20.20
2022-09-21T14:55:46.266Z,20.00
2022-09-21T14:58:31.422Z,19.80
2022-09-21T15:01:35.428Z,19.80
2022-09-21T15:04:29.642Z,19.80
2022-09-21T15:07:38.195Z,19.80
2022-09-21T15:10:55.288Z,19.80
2022-09-21T15:13:54.592Z,19.90
2022-09-21T15:16:35.615Z,19.90
2022-09-21T15:19:28.631Z,19.80
2022-09-21T15:22:09.445Z,19.70
2022-09-21T15:24:36.274Z,19.50
2022-09-21T15:27:12.840Z,19.40
2022-09-21T15:29:42.478Z,19.00
2022-09-21T15:32:09.295Z,19.40
2022-09-21T15:34:36.124Z,19.60
2022-09-21T15:37:17.407Z,19.40
2022-09-21T15:39:44.420Z,19.40
2022-09-21T15:42:18.478Z,19.40
2022-09-21T15:44:50.776Z,19.30
2022-09-21T15:47:22.431Z,19.10
2022-09-21T15:49:50.953Z,19.10
2022-09-21T15:52:38.110Z,19.10
2022-09-21T15:55:15.980Z,19.20
2022-09-21T15:57:43.701Z,19.20
2022-09-21T16:00:22.309Z,19.20
2022-09-21T16:02:56.123Z,19.30
2022-09-21T16:05:25.640Z,19.10
2022-09-21T16:08:06.366Z,19.10
2022-09-21T16:10:33.401Z,19.30
2022-09-21T16:13:36.437Z,19.10
2022-09-21T16:16:08.705Z,19.10
2022-09-21T16:18:48.419Z,18.90
2022-09-21T16:21:24.835Z,18.90
2022-09-21T16:23:55.500Z,18.80
2022-09-21T16:26:30.205Z,18.80
2022-09-21T16:29:24.037Z,18.70
2022-09-21T16:31:51.580Z,18.70
2022-09-21T16:34:37.472Z,18.60
2022-09-21T16:37:28.784Z,18.60
2022-09-21T16:39:58.033Z,18.60
2022-09-21T16:42:33.395Z,18.50
2022-09-21T16:45:01.081Z,18.40
2022-09-21T16:47:28.814Z,18.30
2022-09-21T16:50:02.615Z,18.20
2022-09-21T16:52:30.499Z,18.10
2022-09-21T16:54:58.780Z,18.00
2022-09-21T16:57:26.712Z,18.00
2022-09-21T16:59:53.613Z,17.80
2022-09-21T17:02:20.981Z,17.80
2022-09-21T17:04:50.561Z,17.70
2022-09-21T17:07:20.092Z,17.60
2022-09-21T17:09:47.932Z,17.40
2022-09-21T17:12:19.815Z,17.40
2022-09-21T17:14:47.565Z,17.30
2022-09-21T17:17:23.581Z,17.20
2022-09-21T17:19:52.707Z,17.50
2022-09-21T17:22:20.064Z,16.60
2022-09-21T17:24:52.397Z,16.50
2022-09-21T17:27:26.722Z,16.90
2022-09-21T17:29:55.322Z,16.80
2022-09-21T17:32:24.564Z,16.70
2022-09-21T17:35:31.385Z,16.60
2022-09-21T17:37:59.025Z,16.50
2022-09-21T17:40:27.515Z,16.40
2022-09-21T17:43:03.427Z,16.30
2022-09-21T17:45:40.576Z,16.20
2022-09-21T17:48:18.299Z,16.10
2022-09-21T17:50:45.417Z,16.00
2022-09-21T17:53:31.376Z,15.90
2022-09-21T17:56:00.317Z,15.80
2022-09-21T17:58:50.518Z,15.70
2022-09-21T18:01:29.178Z,15.60
2022-09-21T18:03:57.305Z,15.50
2022-09-21T18:06:24.538Z,15.40
2022-09-21T18:08:51.714Z,15.30
2022-09-21T18:11:27.308Z,15.20
2022-09-21T18:13:59.505Z,15.10
2022-09-21T18:16:27.779Z,14.90
2022-09-21T18:19:05.628Z,14.80
2022-09-21T18:21:38.217Z,14.80
2022-09-21T18:24:19.091Z,14.60
2022-09-21T18:26:46.748Z,14.50
2022-09-21T18:29:39.981Z,14.40
2022-09-21T18:32:20.069Z,14.30
2022-09-21T18:34:51.206Z,14.20
2022-09-21T18:37:38.885Z,14.10
2022-09-21T18:40:32.162Z,14.00
2022-09-21T18:43:17.281Z,13.90
2022-09-21T18:45:48.166Z,13.80
2022-09-21T18:48:33.918Z,13.90
2022-09-21T18:51:27.506Z,13.70
2022-09-21T18:53:56.513Z,13.60
2022-09-21T18:56:25.478Z,13.50
2022-09-21T18:58:52.639Z,13.40
2022-09-21T19:01:23.560Z,13.40
2022-09-21T19:03:50.893Z,13.30
2022-09-21T19:06:29.688Z,13.20
2022-09-21T19:09:14.993Z,13.10
2022-09-21T19:12:08.257Z,13.10
2022-09-21T19:14:50.601Z,13.00
2022-09-21T19:18:08.954Z,12.80
2022-09-21T19:20:54.773Z,12.80
2022-09-21T19:23:53.415Z,12.70
2022-09-21T19:26:32.577Z,12.60
2022-09-21T19:29:44.431Z,12.50
2022-09-21T19:32:34.478Z,12.50
2022-09-21T19:35:30.947Z,12.40
2022-09-21T19:38:00.156Z,12.30
2022-09-21T19:40:30.291Z,12.20
2022-09-21T19:43:20.082Z,12.20
2022-09-21T19:46:05.728Z,12.10
2022-09-21T19:48:45.913Z,12.10
2022-09-21T19:51:35.682Z,12.00
2022-09-21T19:54:21.757Z,11.90
2022-09-21T19:57:08.898Z,11.80
2022-09-21T19:59:45.137Z,11.80
2022-09-21T20:02:20.837Z,11.70
2022-09-21T20:04:55.863Z,11.70
2022-09-21T20:07:47.074Z,11.60
2022-09-21T20:10:13.902Z,11.60
2022-09-21T20:12:49.925Z,11.60
2022-09-21T20:15:28.722Z,11.50
2022-09-21T20:18:07.932Z,11.50
2022-09-21T20:20:35.030Z,11.40
2022-09-21T20:23:02.107Z,11.40
2022-09-21T20:25:38.804Z,11.40
2022-09-21T20:28:07.049Z,11.30
2022-09-21T20:30:38.503Z,11.30
2022-09-21T20:33:10.836Z,11.20
2022-09-21T20:35:37.830Z,11.20
2022-09-21T20:38:04.737Z,11.10
2022-09-21T20:40:32.128Z,11.10
2022-09-21T20:43:01.116Z,11.00
2022-09-21T20:45:29.054Z,11.00
2022-09-21T20:48:13.145Z,10.90
2022-09-21T20:50:56.641Z,10.90
2022-09-21T20:53:24.829Z,10.90
2022-09-21T20:55:56.661Z,10.80
2022-09-21T20:58:24.873Z,10.80
2022-09-21T21:00:58.067Z,10.80
2022-09-21T21:03:26.049Z,10.70
2022-09-21T21:05:52.947Z,10.60
2022-09-21T21:08:19.871Z,10.60
2022-09-21T21:10:47.030Z,10.50
2022-09-21T21:13:13.952Z,10.50
2022-09-21T21:15:40.858Z,10.50
2022-09-21T21:18:12.411Z,10.40
2022-09-21T21:20:39.705Z,10.40
2022-09-21T21:23:08.332Z,10.30
2022-09-21T21:25:35.506Z,10.30
2022-09-21T21:28:02.949Z,10.20
2022-09-21T21:30:29.876Z,10.20
2022-09-21T21:32:56.992Z,10.10
2022-09-21T21:35:25.122Z,10.10
2022-09-21T21:37:52.149Z,10.00
2022-09-21T21:40:20.736Z,10.10
2022-09-21T21:42:47.594Z,10.00
2022-09-21T21:45:14.463Z,10.00
2022-09-21T21:47:41.707Z,9.90
2022-09-21T21:50:12.072Z,9.90
2022-09-21T21:52:39.348Z,9.80
2022-09-21T21:55:06.819Z,9.80
2022-09-21T21:57:33.732Z,9.80
2022-09-21T22:00:00.711Z,9.70
2022-09-21T22:02:29.814Z,9.70
2022-09-21T22:04:56.777Z,9.70
2022-09-21T22:07:24.235Z,9.70
2022-09-21T22:09:50.980Z,9.70
2022-09-21T22:12:17.883Z,9.70
2022-09-21T22:14:46.509Z,9.60
2022-09-21T22:17:14.668Z,9.60
2022-09-21T22:19:42.479Z,9.50
2022-09-21T22:22:09.483Z,9.60
2022-09-21T22:24:36.328Z,9.50
2022-09-21T22:27:04.367Z,9.40
2022-09-21T22:29:31.225Z,9.40
2022-09-21T22:31:58.391Z,9.30
2022-09-21T22:34:25.425Z,9.30
2022-09-21T22:36:52.291Z,9.30
2022-09-21T22:39:19.211Z,9.30
2022-09-21T22:41:45.990Z,9.20
2022-09-21T22:44:12.907Z,9.20
2022-09-21T22:46:40.313Z,9.10
2022-09-21T22:49:07.862Z,9.10
2022-09-21T22:51:35.619Z,9.10
2022-09-21T22:54:02.836Z,9.00
2022-09-21T22:56:31.734Z,9.00
2022-09-21T22:59:01.641Z,9.00
2022-09-21T23:01:38.526Z,9.10
2022-09-21T23:04:14.224Z,9.00
2022-09-21T23:06:44.239Z,8.90
2022-09-21T23:09:16.894Z,8.90
2022-09-21T23:11:47.650Z,8.90
2022-09-21T23:14:16.613Z,8.80
2022-09-21T23:16:43.923Z,8.80
2022-09-21T23:19:15.893Z,8.80
2022-09-21T23:21:44.834Z,8.80
2022-09-21T23:24:13.021Z,8.70
2022-09-21T23:26:40.197Z,8.70
2022-09-21T23:29:12.811Z,8.60
2022-09-21T23:31:44.526Z,8.60
2022-09-21T23:34:20.994Z,8.50
2022-09-21T23:36:48.096Z,8.40
2022-09-21T23:39:15.896Z,8.40
2022-09-21T23:41:43.924Z,8.30
2022-09-21T23:44:11.482Z,8.40
2022-09-21T23:46:39.584Z,8.30
2022-09-21T23:49:06.975Z,8.30
2022-09-21T23:51:34.798Z,8.30
2022-09-21T23:54:01.960Z,8.30
2022-09-21T23:56:30.351Z,8.40
2022-09-21T23:58:57.616Z,8.20
